createdAt,value
2023-02-13T00:04:45.724Z,4.4
2023-02-13T00:07:12.576Z,5.2
2023-02-13T00:12:13.033Z,5.5
2023-02-13T00:17:13.604Z,4.4
2023-02-13T00:22:14.106Z,1.7
2023-02-13T00:27:14.727Z,3.5
2023-02-13T00:32:15.382Z,3.7
2023-02-13T00:37:15.727Z,6.6
2023-02-13T00:42:16.344Z,4.0
2023-02-13T00:47:16.768Z,2.3
2023-02-13T00:52:17.385Z,3.3
2023-02-13T00:57:17.859Z,2.5
2023-02-13T01:02:18.566Z,4.7
2023-02-13T01:07:18.911Z,5.7
2023-02-13T01:12:19.519Z,2.5
2023-02-13T01:17:20.002Z,4.4
2023-02-13T01:22:20.550Z,3.4
2023-02-13T01:27:20.962Z,3.5
2023-02-13T01:32:22.140Z,2.8
2023-02-13T01:37:22.002Z,1.8
2023-02-13T01:42:22.534Z,3.6
2023-02-13T01:47:23.088Z,2.4
2023-02-13T01:52:23.633Z,3.1
2023-02-13T01:57:24.085Z,3.8
2023-02-13T02:02:24.854Z,6.7
2023-02-13T02:07:25.135Z,2.7
2023-02-13T02:12:25.747Z,3.7
2023-02-13T02:17:26.377Z,5.0
2023-02-13T02:22:26.828Z,3.7
2023-02-13T02:27:27.438Z,4.8
2023-02-13T02:32:28.464Z,4.0
2023-02-13T02:37:28.470Z,5.0
2023-02-13T02:42:29.005Z,3.6
2023-02-13T02:47:29.750Z,3.2
2023-02-13T02:52:30.118Z,3.2
2023-02-13T02:57:30.666Z,6.4
2023-02-13T03:02:31.267Z,4.5
2023-02-13T03:07:31.742Z,4.0
2023-02-13T03:12:32.345Z,5.1
2023-02-13T03:17:32.926Z,3.7
2023-02-13T03:22:33.422Z,4.0
2023-02-13T03:27:33.956Z,3.9
2023-02-13T03:32:35.127Z,4.3
2023-02-13T03:37:35.016Z,5.4
2023-02-13T03:42:35.601Z,3.9
2023-02-13T03:47:36.104Z,4.0
2023-02-13T03:52:36.609Z,6.4
2023-02-13T03:57:37.087Z,5.9
2023-02-13T04:02:37.828Z,5.0
2023-02-13T04:07:38.163Z,3.2
2023-02-13T04:12:38.808Z,2.8
2023-02-13T04:17:39.293Z,2.1
2023-02-13T04:22:39.754Z,4.9
2023-02-13T04:27:40.434Z,4.5
2023-02-13T04:32:41.349Z,3.4
2023-02-13T04:37:41.533Z,3.5
2023-02-13T04:42:41.950Z,3.0
2023-02-13T04:47:42.639Z,3.6
2023-02-13T04:52:43.050Z,4.2
2023-02-13T04:57:43.699Z,3.2
2023-02-13T05:02:44.250Z,4.1
2023-02-13T05:07:44.763Z,3.6
2023-02-13T05:12:45.306Z,3.6
2023-02-13T05:17:45.811Z,3.8
2023-02-13T05:22:46.397Z,4.7
2023-02-13T05:27:46.809Z,5.0
2023-02-13T05:32:47.862Z,3.9
2023-02-13T05:37:47.871Z,3.6
2023-02-13T05:42:48.525Z,3.0
2023-02-13T05:47:49.042Z,2.7
2023-02-13T05:52:49.605Z,4.6
2023-02-13T05:57:50.051Z,1.9
2023-02-13T06:02:50.823Z,3.6
2023-02-13T06:07:51.164Z,4.5
2023-02-13T06:12:51.742Z,2.2
2023-02-13T06:17:52.352Z,3.4
2023-02-13T06:22:52.726Z,3.3
2023-02-13T06:27:53.337Z,3.0
2023-02-13T06:32:54.360Z,4.1
2023-02-13T06:37:54.320Z,4.9
2023-02-13T06:42:54.820Z,2.7
2023-02-13T06:47:55.544Z,3.1
2023-02-13T06:52:55.926Z,3.1
2023-02-13T06:57:56.533Z,4.0
2023-02-13T07:02:57.073Z,3.1
2023-02-13T07:07:57.576Z,2.3
2023-02-13T07:13:05.688Z,3.1
2023-02-13T07:17:58.653Z,3.6
2023-02-13T07:22:59.124Z,4.0
2023-02-13T07:27:59.721Z,2.8
2023-02-13T07:33:00.521Z,3.8
2023-02-13T07:38:00.770Z,3.1
2023-02-13T07:43:01.317Z,2.6
2023-02-13T07:48:01.863Z,3.1
2023-02-13T07:53:02.355Z,3.8
2023-02-13T07:58:02.797Z,3.8
2023-02-13T08:03:03.433Z,3.3
2023-02-13T08:08:03.814Z,3.7
2023-02-13T08:13:04.447Z,5.2
2023-02-13T08:18:04.923Z,3.6
2023-02-13T08:23:05.457Z,2.5
2023-02-13T08:28:05.968Z,2.0
2023-02-13T08:33:06.722Z,2.4
2023-02-13T08:38:06.867Z,4.0
2023-02-13T08:43:07.484Z,3.0
2023-02-13T08:48:07.991Z,1.9
2023-02-13T08:53:08.462Z,2.6
2023-02-13T08:58:08.916Z,3.5
2023-02-13T09:03:10.402Z,3.2
2023-02-13T09:08:09.862Z,2.5
2023-02-13T09:13:10.461Z,1.6
2023-02-13T09:18:11.075Z,5.0
2023-02-13T09:23:11.444Z,2.4
2023-02-13T09:28:11.943Z,2.9
2023-02-13T09:33:12.565Z,2.8
2023-02-13T09:38:12.811Z,2.7
2023-02-13T09:43:13.438Z,2.6
2023-02-13T09:48:13.858Z,2.8
2023-02-13T09:53:14.359Z,1.9
2023-02-13T09:58:14.788Z,4.7
2023-02-13T10:03:15.392Z,2.6
2023-02-13T10:08:15.734Z,3.0
2023-02-13T10:13:16.262Z,4.1
2023-02-13T10:18:16.799Z,3.4
2023-02-13T10:23:17.117Z,1.9
2023-02-13T10:28:17.682Z,2.3
2023-02-13T10:33:18.351Z,1.5
2023-02-13T10:38:18.609Z,2.4
2023-02-13T10:43:19.100Z,3.6
2023-02-13T10:48:19.640Z,2.8
2023-02-13T10:53:20.005Z,3.0
2023-02-13T10:58:20.603Z,3.7
2023-02-13T11:03:21.141Z,3.3
2023-02-13T11:08:21.599Z,3.2
2023-02-13T11:13:22.001Z,3.2
2023-02-13T11:18:22.628Z,2.7
2023-02-13T11:23:22.976Z,4.0
2023-02-13T11:28:23.589Z,3.8
2023-02-13T11:33:24.417Z,2.7
2023-02-13T11:38:24.497Z,3.0
2023-02-13T11:43:24.952Z,2.4
2023-02-13T11:48:25.664Z,2.9
2023-02-13T11:53:26.028Z,3.0
2023-02-13T11:58:26.617Z,3.1
2023-02-13T12:03:27.177Z,4.8
2023-02-13T12:08:27.614Z,2.2
2023-02-13T12:13:28.102Z,4.4
2023-02-13T12:18:28.690Z,3.1
2023-02-13T12:23:29.032Z,3.7
2023-02-13T12:28:29.675Z,3.4
2023-02-13T12:33:30.645Z,4.0
2023-02-13T12:38:30.621Z,4.5
2023-02-13T12:43:31.121Z,4.5
2023-02-13T12:48:31.814Z,4.1
2023-02-13T12:53:32.279Z,3.4
2023-02-13T12:58:32.697Z,4.1
2023-02-13T13:03:33.411Z,6.5
2023-02-13T13:08:33.780Z,6.9
2023-02-13T13:13:34.471Z,5.8
2023-02-13T13:18:34.952Z,5.1
2023-02-13T13:23:35.543Z,6.9
2023-02-13T13:28:35.953Z,6.2
2023-02-13T13:33:36.923Z,5.6
2023-02-13T13:38:37.052Z,6.4
2023-02-13T13:43:37.670Z,6.4
2023-02-13T13:48:38.135Z,5.3
2023-02-13T13:53:38.672Z,8.7
2023-02-13T13:58:39.108Z,9.8
2023-02-13T14:03:39.821Z,10.0
2023-02-13T14:08:40.184Z,7.8
2023-02-13T14:13:40.734Z,7.2
2023-02-13T14:18:41.521Z,6.9
2023-02-13T14:23:41.743Z,7.1
2023-02-13T14:28:42.376Z,8.1
2023-02-13T14:33:43.080Z,5.9
2023-02-13T14:38:43.538Z,6.7
2023-02-13T14:43:44.071Z,7.3
2023-02-13T14:48:44.659Z,8.5
2023-02-13T14:53:45.119Z,9.1
2023-02-13T14:58:45.735Z,10.5
2023-02-13T15:03:46.434Z,8.8
2023-02-13T15:08:46.828Z,8.6
2023-02-13T15:13:47.465Z,8.9
2023-02-13T15:18:47.992Z,6.0
2023-02-13T15:23:48.554Z,10.5
2023-02-13T15:28:49.035Z,7.8
2023-02-13T15:33:49.989Z,6.7
2023-02-13T15:38:50.154Z,5.5
2023-02-13T15:43:50.821Z,9.5
2023-02-13T15:48:51.416Z,8.7
2023-02-13T15:53:51.769Z,7.9
2023-02-13T15:58:52.394Z,7.1
2023-02-13T16:03:52.940Z,7.0
2023-02-13T16:08:53.460Z,7.0
2023-02-13T16:13:53.965Z,7.4
2023-02-13T16:18:54.655Z,8.6
2023-02-13T16:23:54.970Z,5.8
2023-02-13T16:28:55.565Z,7.2
2023-02-13T16:33:56.575Z,10.0
2023-02-13T16:38:56.545Z,9.3
2023-02-13T16:43:57.071Z,7.1
2023-02-13T16:48:57.811Z,4.9
2023-02-13T16:53:58.218Z,5.7
2023-02-13T16:58:58.754Z,5.0
2023-02-13T17:03:59.507Z,6.6
2023-02-13T17:08:59.862Z,4.7
2023-02-13T17:14:00.462Z,16.6
2023-02-13T17:19:01.037Z,9.2
2023-02-13T17:24:01.585Z,8.4
2023-02-13T17:29:01.992Z,10.3
2023-02-13T17:34:03.100Z,4.5
2023-02-13T17:39:03.032Z,4.1
2023-02-13T17:44:03.678Z,7.6
2023-02-13T17:49:04.147Z,11.2
2023-02-13T17:54:04.694Z,7.9
2023-02-13T17:59:05.120Z,5.6
2023-02-13T18:04:05.704Z,8.2
2023-02-13T18:09:06.066Z,7.9
2023-02-13T18:14:06.619Z,8.9
2023-02-13T18:19:07.162Z,6.9
2023-02-13T18:24:07.674Z,6.5
2023-02-13T18:29:08.089Z,7.4
2023-02-13T18:34:09.026Z,6.6
2023-02-13T18:39:09.104Z,6.6
2023-02-13T18:44:14.796Z,6.1
2023-02-13T18:49:10.067Z,5.1
2023-02-13T18:54:10.666Z,7.7
2023-02-13T18:59:11.127Z,6.1
2023-02-13T19:04:11.773Z,6.0
2023-02-13T19:09:12.149Z,4.9
2023-02-13T19:14:12.714Z,6.1
2023-02-13T19:19:13.217Z,6.5
2023-02-13T19:24:13.687Z,6.2
2023-02-13T19:29:14.101Z,4.9
2023-02-13T19:34:14.990Z,4.2
2023-02-13T19:39:15.061Z,4.5
2023-02-13T19:44:15.581Z,5.4
2023-02-13T19:49:15.998Z,5.8
2023-02-13T19:54:16.505Z,5.0
2023-02-13T19:59:16.814Z,5.3
2023-02-13T20:04:17.338Z,2.9
2023-02-13T20:09:17.771Z,4.5
2023-02-13T20:14:18.138Z,5.4
2023-02-13T20:19:18.628Z,3.2
2023-02-13T20:24:18.966Z,8.4
2023-02-13T20:29:19.352Z,4.3
2023-02-13T20:34:20.275Z,4.5
2023-02-13T20:39:20.317Z,4.5
2023-02-13T20:44:20.647Z,4.6
2023-02-13T20:49:21.074Z,3.9
2023-02-13T20:54:21.576Z,5.7
2023-02-13T20:59:21.930Z,4.4
2023-02-13T21:04:22.925Z,4.6
2023-02-13T21:09:23.049Z,4.1
2023-02-13T21:14:23.513Z,6.2
2023-02-13T21:19:24.239Z,4.1
2023-02-13T21:24:24.401Z,5.5
2023-02-13T21:29:24.484Z,4.9
2023-02-13T21:34:25.364Z,5.8
2023-02-13T21:39:25.346Z,6.5
2023-02-13T21:44:25.720Z,3.7
2023-02-13T21:49:26.116Z,4.0
2023-02-13T21:54:26.572Z,4.2
2023-02-13T21:59:26.983Z,4.9
2023-02-13T22:04:27.535Z,4.7
2023-02-13T22:09:27.810Z,6.3
2023-02-13T22:14:28.228Z,3.8
2023-02-13T22:19:28.698Z,3.4
2023-02-13T22:24:29.038Z,7.5
2023-02-13T22:29:29.537Z,5.6
2023-02-13T22:34:30.107Z,6.4
2023-02-13T22:39:30.436Z,5.4
2023-02-13T22:44:30.773Z,5.6
2023-02-13T22:49:31.162Z,3.7
2023-02-13T22:54:31.621Z,4.0
2023-02-13T22:59:32.059Z,5.5
2023-02-13T23:04:32.553Z,4.8
2023-02-13T23:09:32.824Z,3.2
2023-02-13T23:14:33.353Z,8.8
2023-02-13T23:19:33.745Z,3.6
2023-02-13T23:24:34.081Z,5.4
2023-02-13T23:29:34.474Z,5.0
2023-02-13T23:34:35.017Z,6.4
2023-02-13T23:39:35.304Z,4.2
2023-02-13T23:44:35.725Z,5.0
2023-02-13T23:49:36.066Z,4.5
2023-02-13T23:54:36.608Z,6.2
2023-02-13T23:59:36.937Z,4.6
